EGLL Airport Information

Runway Information
Runway 09L Length 12799 ft width 164 ft
Elevation 79 ft Threshold 1007 ft Heading 90
Runway 27R Length 12799 ft Width 164 ft
Elevation 78 ft Threshold 0 ft Heading 270
Runway 09R Length 12001 ft width 148 ft
Elevation 75 ft Threshold 1013 ft Heading 90
Runway 27L Length 12001 ft Width 148 ft
Elevation 77 ft Threshold 0 ft Heading 270
Airport Frequencies
Type APP Name APP Frequency 119.725 MHZ
Type ATIS Name ATIS Frequency 128.075 MHZ
Type CLD Name CLNC DEL Frequency 121.975 MHZ
Type GND Name GND Frequency 121.7 MHZ
Type TWR Name TWR Frequency 118.475 MHZ
Airport Navaids
Type VOR-DME Name London Frequency 113600 KHZ
Airport Weather Information & NOTAM
ADDS - METARS form results

(1139 UTC 17 July 2018)
 
METAR text: EGLL 171120Z AUTO 24011KT 200V260 9999 NCD 23/09 Q1016 NOSIG
Conditions at: EGLL (LONDON/HEATHROW , GB) observed 1120 UTC 17 July 2018
Temperature: 23.0°C (73°F)
Dewpoint: 9.0°C (48°F) [RH = 41%]
Pressure (altimeter): 30.00 inches Hg (1016.0 mb)
Winds: from the WSW (240 degrees) at 13 MPH (11 knots; 5.7 m/s)
Visibility: 6 or more miles (10+ km)
Ceiling: at least 12,000 feet AGL
Clouds: sky clear below 12,000 feet AGL
Weather: no significant weather observed at this time

METAR text: EGLL 171050Z AUTO 23010KT 9999 NCD 21/09 Q1016 NOSIG
Conditions at: EGLL (LONDON/HEATHROW , GB) observed 1050 UTC 17 July 2018
Temperature: 21.0°C (70°F)
Dewpoint: 9.0°C (48°F) [RH = 46%]
Pressure (altimeter): 30.00 inches Hg (1016.0 mb)
Winds: from the SW (230 degrees) at 12 MPH (10 knots; 5.2 m/s)
Visibility: 6 or more miles (10+ km)
Ceiling: at least 12,000 feet AGL
Clouds: sky clear below 12,000 feet AGL
Weather: no significant weather observed at this time